sensor_id;sensor_type;location;lat;lon;timestamp;temperature;humidity
6879;DHT22;3478;51.462;7.338;2022-11-06T00:01:04;8.80;99.90
6879;DHT22;3478;51.462;7.338;2022-11-06T00:06:08;8.80;99.90
6879;DHT22;3478;51.462;7.338;2022-11-06T00:11:28;8.80;99.90
6879;DHT22;3478;51.462;7.338;2022-11-06T00:16:30;8.80;99.90
6879;DHT22;3478;51.462;7.338;2022-11-06T00:21:34;8.80;99.90
6879;DHT22;3478;51.462;7.338;2022-11-06T00:26:36;8.90;99.90
6879;DHT22;3478;51.462;7.338;2022-11-06T00:31:38;8.80;99.90
6879;DHT22;3478;51.462;7.338;2022-11-06T00:36:41;8.80;99.90
6879;DHT22;3478;51.462;7.338;2022-11-06T00:41:43;8.80;99.90
6879;DHT22;3478;51.462;7.338;2022-11-06T00:46:45;8.80;99.90
6879;DHT22;3478;51.462;7.338;2022-11-06T00:51:48;8.70;99.90
6879;DHT22;3478;51.462;7.338;2022-11-06T00:56:50;8.70;99.90
6879;DHT22;3478;51.462;7.338;2022-11-06T01:01:51;8.70;99.90
6879;DHT22;3478;51.462;7.338;2022-11-06T01:06:55;8.70;99.90
6879;DHT22;3478;51.462;7.338;2022-11-06T01:11:58;8.60;99.90
6879;DHT22;3478;51.462;7.338;2022-11-06T01:17:00;8.60;99.90
6879;DHT22;3478;51.462;7.338;2022-11-06T01:22:03;8.60;99.90
6879;DHT22;3478;51.462;7.338;2022-11-06T01:27:05;8.60;99.90
6879;DHT22;3478;51.462;7.338;2022-11-06T01:32:07;8.50;99.90
6879;DHT22;3478;51.462;7.338;2022-11-06T01:37:10;8.50;99.90
6879;DHT22;3478;51.462;7.338;2022-11-06T01:42:19;8.40;99.90
6879;DHT22;3478;51.462;7.338;2022-11-06T01:47:23;8.40;99.90
6879;DHT22;3478;51.462;7.338;2022-11-06T01:52:27;8.40;99.90
6879;DHT22;3478;51.462;7.338;2022-11-06T01:57:30;8.40;99.90
6879;DHT22;3478;51.462;7.338;2022-11-06T02:02:32;8.40;99.90
6879;DHT22;3478;51.462;7.338;2022-11-06T02:07:35;8.40;99.90
6879;DHT22;3478;51.462;7.338;2022-11-06T02:12:53;8.40;99.90
6879;DHT22;3478;51.462;7.338;2022-11-06T02:18:12;8.40;99.90
6879;DHT22;3478;51.462;7.338;2022-11-06T02:23:35;8.40;99.90
6879;DHT22;3478;51.462;7.338;2022-11-06T02:28:46;8.30;99.90
6879;DHT22;3478;51.462;7.338;2022-11-06T02:33:53;8.30;99.90
6879;DHT22;3478;51.462;7.338;2022-11-06T02:38:59;8.30;99.90
6879;DHT22;3478;51.462;7.338;2022-11-06T02:44:06;8.30;99.90
6879;DHT22;3478;51.462;7.338;2022-11-06T02:49:12;8.20;99.90
6879;DHT22;3478;51.462;7.338;2022-11-06T02:54:17;8.30;99.90
6879;DHT22;3478;51.462;7.338;2022-11-06T02:59:24;8.30;99.90
6879;DHT22;3478;51.462;7.338;2022-11-06T03:04:32;8.30;99.90
6879;DHT22;3478;51.462;7.338;2022-11-06T03:09:35;8.30;99.90
6879;DHT22;3478;51.462;7.338;2022-11-06T03:14:44;8.30;99.90
6879;DHT22;3478;51.462;7.338;2022-11-06T03:19:51;8.20;99.90
6879;DHT22;3478;51.462;7.338;2022-11-06T03:24:58;8.20;99.90
6879;DHT22;3478;51.462;7.338;2022-11-06T03:30:04;8.20;99.90
6879;DHT22;3478;51.462;7.338;2022-11-06T03:35:12;8.20;99.90
6879;DHT22;3478;51.462;7.338;2022-11-06T03:40:19;8.20;99.90
6879;DHT22;3478;51.462;7.338;2022-11-06T03:45:23;8.20;99.90
6879;DHT22;3478;51.462;7.338;2022-11-06T03:50:29;8.20;99.90
6879;DHT22;3478;51.462;7.338;2022-11-06T03:55:37;8.10;99.90
6879;DHT22;3478;51.462;7.338;2022-11-06T04:00:42;8.20;99.90
6879;DHT22;3478;51.462;7.338;2022-11-06T04:05:47;8.20;99.90
6879;DHT22;3478;51.462;7.338;2022-11-06T04:10:55;8.20;99.90
6879;DHT22;3478;51.462;7.338;2022-11-06T04:16:18;8.20;99.90
6879;DHT22;3478;51.462;7.338;2022-11-06T04:21:27;8.20;99.90
6879;DHT22;3478;51.462;7.338;2022-11-06T04:26:32;8.20;99.90
6879;DHT22;3478;51.462;7.338;2022-11-06T04:31:47;8.20;99.90
6879;DHT22;3478;51.462;7.338;2022-11-06T04:36:58;8.20;99.90
6879;DHT22;3478;51.462;7.338;2022-11-06T04:42:06;8.20;99.90
6879;DHT22;3478;51.462;7.338;2022-11-06T04:47:16;8.20;99.90
6879;DHT22;3478;51.462;7.338;2022-11-06T04:52:24;8.20;99.90
6879;DHT22;3478;51.462;7.338;2022-11-06T04:57:26;8.20;99.90
6879;DHT22;3478;51.462;7.338;2022-11-06T05:02:29;8.20;99.90
6879;DHT22;3478;51.462;7.338;2022-11-06T05:07:31;8.20;99.90
6879;DHT22;3478;51.462;7.338;2022-11-06T05:12:33;8.20;99.90
6879;DHT22;3478;51.462;7.338;2022-11-06T05:17:36;8.10;99.90
6879;DHT22;3478;51.462;7.338;2022-11-06T05:22:39;8.10;99.90
6879;DHT22;3478;51.462;7.338;2022-11-06T05:28:01;8.10;99.90
6879;DHT22;3478;51.462;7.338;2022-11-06T05:33:06;8.20;99.90
6879;DHT22;3478;51.462;7.338;2022-11-06T05:38:08;8.20;99.90
6879;DHT22;3478;51.462;7.338;2022-11-06T05:43:10;8.20;99.90
6879;DHT22;3478;51.462;7.338;2022-11-06T05:48:13;8.20;99.90
6879;DHT22;3478;51.462;7.338;2022-11-06T05:53:15;8.20;99.90
6879;DHT22;3478;51.462;7.338;2022-11-06T05:58:17;8.10;99.90
6879;DHT22;3478;51.462;7.338;2022-11-06T06:03:22;8.10;99.90
6879;DHT22;3478;51.462;7.338;2022-11-06T06:08:24;8.10;99.90
6879;DHT22;3478;51.462;7.338;2022-11-06T06:13:25;8.10;99.90
6879;DHT22;3478;51.462;7.338;2022-11-06T06:18:29;8.10;99.90
6879;DHT22;3478;51.462;7.338;2022-11-06T06:23:30;8.10;99.90
6879;DHT22;3478;51.462;7.338;2022-11-06T06:28:33;8.10;99.90
6879;DHT22;3478;51.462;7.338;2022-11-06T06:33:36;8.10;99.90
6879;DHT22;3478;51.462;7.338;2022-11-06T06:38:38;8.10;99.90
6879;DHT22;3478;51.462;7.338;2022-11-06T06:43:39;8.10;99.90
6879;DHT22;3478;51.462;7.338;2022-11-06T06:48:43;8.10;99.90
6879;DHT22;3478;51.462;7.338;2022-11-06T06:53:45;8.10;99.90
6879;DHT22;3478;51.462;7.338;2022-11-06T06:58:47;8.10;99.90
6879;DHT22;3478;51.462;7.338;2022-11-06T07:03:50;8.20;99.90
6879;DHT22;3478;51.462;7.338;2022-11-06T07:08:53;8.20;99.90
6879;DHT22;3478;51.462;7.338;2022-11-06T07:13:55;8.20;99.90
6879;DHT22;3478;51.462;7.338;2022-11-06T07:18:58;8.20;99.90
6879;DHT22;3478;51.462;7.338;2022-11-06T07:24:00;8.30;99.90
6879;DHT22;3478;51.462;7.338;2022-11-06T07:29:02;8.30;99.90
6879;DHT22;3478;51.462;7.338;2022-11-06T07:34:05;8.40;99.90
6879;DHT22;3478;51.462;7.338;2022-11-06T07:39:07;8.50;99.90
6879;DHT22;3478;51.462;7.338;2022-11-06T07:44:09;8.50;99.90
6879;DHT22;3478;51.462;7.338;2022-11-06T07:49:12;8.60;99.90
6879;DHT22;3478;51.462;7.338;2022-11-06T07:54:15;8.70;99.90
6879;DHT22;3478;51.462;7.338;2022-11-06T07:59:17;8.80;99.90
6879;DHT22;3478;51.462;7.338;2022-11-06T08:04:20;8.80;99.90
6879;DHT22;3478;51.462;7.338;2022-11-06T08:09:22;8.90;99.90
6879;DHT22;3478;51.462;7.338;2022-11-06T08:14:25;8.90;99.90
6879;DHT22;3478;51.462;7.338;2022-11-06T08:19:28;9.00;99.90
6879;DHT22;3478;51.462;7.338;2022-11-06T08:24:30;9.10;99.90
6879;DHT22;3478;51.462;7.338;2022-11-06T08:29:31;9.40;99.90
6879;DHT22;3478;51.462;7.338;2022-11-06T08:34:35;9.50;99.90
6879;DHT22;3478;51.462;7.338;2022-11-06T08:39:36;9.70;99.90
6879;DHT22;3478;51.462;7.338;2022-11-06T08:44:39;9.90;99.90
6879;DHT22;3478;51.462;7.338;2022-11-06T08:49:43;10.10;99.90
6879;DHT22;3478;51.462;7.338;2022-11-06T08:54:45;10.20;99.90
6879;DHT22;3478;51.462;7.338;2022-11-06T08:59:46;10.40;99.90
6879;DHT22;3478;51.462;7.338;2022-11-06T09:04:50;10.70;99.90
6879;DHT22;3478;51.462;7.338;2022-11-06T09:09:51;10.70;99.90
6879;DHT22;3478;51.462;7.338;2022-11-06T09:14:54;11.00;99.90
6879;DHT22;3478;51.462;7.338;2022-11-06T09:19:58;10.90;99.90
6879;DHT22;3478;51.462;7.338;2022-11-06T09:24:59;11.20;99.90
6879;DHT22;3478;51.462;7.338;2022-11-06T09:30:01;11.50;99.90
6879;DHT22;3478;51.462;7.338;2022-11-06T09:35:05;11.50;99.90
6879;DHT22;3478;51.462;7.338;2022-11-06T09:40:16;11.20;99.90
6879;DHT22;3478;51.462;7.338;2022-11-06T09:45:20;11.20;99.90
6879;DHT22;3478;51.462;7.338;2022-11-06T09:50:28;11.20;99.90
6879;DHT22;3478;51.462;7.338;2022-11-06T09:55:33;11.30;99.90
6879;DHT22;3478;51.462;7.338;2022-11-06T10:00:37;11.30;99.90
6879;DHT22;3478;51.462;7.338;2022-11-06T10:05:42;11.50;99.90
6879;DHT22;3478;51.462;7.338;2022-11-06T10:10:53;11.60;99.90
6879;DHT22;3478;51.462;7.338;2022-11-06T10:16:03;11.70;99.90
6879;DHT22;3478;51.462;7.338;2022-11-06T10:21:10;11.70;99.90
6879;DHT22;3478;51.462;7.338;2022-11-06T10:26:14;11.70;99.90
6879;DHT22;3478;51.462;7.338;2022-11-06T10:31:22;11.80;99.90
6879;DHT22;3478;51.462;7.338;2022-11-06T10:36:30;11.90;99.90
6879;DHT22;3478;51.462;7.338;2022-11-06T10:41:36;11.80;99.90
6879;DHT22;3478;51.462;7.338;2022-11-06T10:46:41;11.90;99.90
6879;DHT22;3478;51.462;7.338;2022-11-06T10:52:18;12.40;99.90
6879;DHT22;3478;51.462;7.338;2022-11-06T10:57:30;12.50;99.90
6879;DHT22;3478;51.462;7.338;2022-11-06T11:02:38;12.60;99.90
6879;DHT22;3478;51.462;7.338;2022-11-06T11:07:45;12.70;99.90
6879;DHT22;3478;51.462;7.338;2022-11-06T11:12:48;12.70;99.90
6879;DHT22;3478;51.462;7.338;2022-11-06T11:18:06;12.80;99.90
6879;DHT22;3478;51.462;7.338;2022-11-06T11:23:18;12.70;99.90
6879;DHT22;3478;51.462;7.338;2022-11-06T11:28:25;12.70;99.90
6879;DHT22;3478;51.462;7.338;2022-11-06T11:33:28;12.40;99.90
6879;DHT22;3478;51.462;7.338;2022-11-06T11:38:31;12.30;99.90
6879;DHT22;3478;51.462;7.338;2022-11-06T11:43:35;12.20;99.90
6879;DHT22;3478;51.462;7.338;2022-11-06T11:48:41;12.20;99.90
6879;DHT22;3478;51.462;7.338;2022-11-06T11:53:45;12.10;99.90
6879;DHT22;3478;51.462;7.338;2022-11-06T11:58:49;12.00;99.90
6879;DHT22;3478;51.462;7.338;2022-11-06T12:03:52;11.90;99.90
6879;DHT22;3478;51.462;7.338;2022-11-06T12:08:55;12.00;99.90
6879;DHT22;3478;51.462;7.338;2022-11-06T12:14:16;12.10;99.90
6879;DHT22;3478;51.462;7.338;2022-11-06T12:19:19;12.20;99.90
6879;DHT22;3478;51.462;7.338;2022-11-06T12:24:27;12.30;99.90
6879;DHT22;3478;51.462;7.338;2022-11-06T12:29:33;12.40;99.90
6879;DHT22;3478;51.462;7.338;2022-11-06T12:34:38;12.40;99.90
6879;DHT22;3478;51.462;7.338;2022-11-06T12:39:48;12.60;99.90
6879;DHT22;3478;51.462;7.338;2022-11-06T12:44:52;12.50;99.90
6879;DHT22;3478;51.462;7.338;2022-11-06T12:50:11;12.30;99.90
6879;DHT22;3478;51.462;7.338;2022-11-06T12:55:21;12.20;99.90
6879;DHT22;3478;51.462;7.338;2022-11-06T13:00:31;12.20;99.90
6879;DHT22;3478;51.462;7.338;2022-11-06T13:05:42;12.00;99.90
6879;DHT22;3478;51.462;7.338;2022-11-06T13:10:54;12.00;99.90
6879;DHT22;3478;51.462;7.338;2022-11-06T13:16:05;11.90;99.90
6879;DHT22;3478;51.462;7.338;2022-11-06T13:21:16;11.80;99.90
6879;DHT22;3478;51.462;7.338;2022-11-06T13:26:24;11.80;99.90
6879;DHT22;3478;51.462;7.338;2022-11-06T13:31:33;11.80;99.90
6879;DHT22;3478;51.462;7.338;2022-11-06T13:36:37;11.80;99.90
6879;DHT22;3478;51.462;7.338;2022-11-06T13:41:40;11.80;99.90
6879;DHT22;3478;51.462;7.338;2022-11-06T13:46:51;11.90;99.90
6879;DHT22;3478;51.462;7.338;2022-11-06T13:51:56;11.90;99.90
6879;DHT22;3478;51.462;7.338;2022-11-06T14:03:08;11.80;99.90
6879;DHT22;3478;51.462;7.338;2022-11-06T14:08:18;11.80;99.90
6879;DHT22;3478;51.462;7.338;2022-11-06T14:13:26;11.70;99.90
6879;DHT22;3478;51.462;7.338;2022-11-06T14:18:28;11.70;99.90
6879;DHT22;3478;51.462;7.338;2022-11-06T14:23:46;11.80;99.90
6879;DHT22;3478;51.462;7.338;2022-11-06T14:28:49;11.80;99.90
6879;DHT22;3478;51.462;7.338;2022-11-06T14:33:59;11.80;99.90
6879;DHT22;3478;51.462;7.338;2022-11-06T14:39:03;11.80;99.90
6879;DHT22;3478;51.462;7.338;2022-11-06T14:44:19;11.80;99.90
6879;DHT22;3478;51.462;7.338;2022-11-06T14:49:33;11.80;99.90
6879;DHT22;3478;51.462;7.338;2022-11-06T14:54:38;11.80;99.90
6879;DHT22;3478;51.462;7.338;2022-11-06T14:59:42;11.70;99.90
6879;DHT22;3478;51.462;7.338;2022-11-06T15:04:47;11.70;99.90
6879;DHT22;3478;51.462;7.338;2022-11-06T15:09:50;11.70;99.90
6879;DHT22;3478;51.462;7.338;2022-11-06T15:14:55;11.60;99.90
6879;DHT22;3478;51.462;7.338;2022-11-06T15:20:13;11.60;99.90
6879;DHT22;3478;51.462;7.338;2022-11-06T15:25:19;11.50;99.90
6879;DHT22;3478;51.462;7.338;2022-11-06T15:30:24;11.40;99.90
6879;DHT22;3478;51.462;7.338;2022-11-06T15:35:30;11.40;99.90
6879;DHT22;3478;51.462;7.338;2022-11-06T15:40:35;11.40;99.90
6879;DHT22;3478;51.462;7.338;2022-11-06T15:45:39;11.30;99.90
6879;DHT22;3478;51.462;7.338;2022-11-06T15:50:41;11.30;99.90
6879;DHT22;3478;51.462;7.338;2022-11-06T15:55:47;11.20;99.90
6879;DHT22;3478;51.462;7.338;2022-11-06T16:00:51;11.20;99.90
6879;DHT22;3478;51.462;7.338;2022-11-06T16:05:55;11.20;99.90
6879;DHT22;3478;51.462;7.338;2022-11-06T16:10:59;11.10;99.90
6879;DHT22;3478;51.462;7.338;2022-11-06T16:16:04;10.90;99.90
6879;DHT22;3478;51.462;7.338;2022-11-06T16:21:09;10.70;99.90
6879;DHT22;3478;51.462;7.338;2022-11-06T16:26:14;10.40;99.90
6879;DHT22;3478;51.462;7.338;2022-11-06T16:31:20;10.20;99.90
6879;DHT22;3478;51.462;7.338;2022-11-06T16:36:24;10.00;99.90
6879;DHT22;3478;51.462;7.338;2022-11-06T16:41:59;9.90;99.90
6879;DHT22;3478;51.462;7.338;2022-11-06T16:47:12;9.80;99.90
6879;DHT22;3478;51.462;7.338;2022-11-06T16:52:17;9.70;99.90
6879;DHT22;3478;51.462;7.338;2022-11-06T16:57:22;9.60;99.90
6879;DHT22;3478;51.462;7.338;2022-11-06T17:02:27;9.50;99.90
6879;DHT22;3478;51.462;7.338;2022-11-06T17:07:29;9.50;99.90
6879;DHT22;3478;51.462;7.338;2022-11-06T17:12:32;9.40;99.90
6879;DHT22;3478;51.462;7.338;2022-11-06T17:17:34;9.40;99.90
6879;DHT22;3478;51.462;7.338;2022-11-06T17:22:38;9.40;99.90
6879;DHT22;3478;51.462;7.338;2022-11-06T17:27:42;9.30;99.90
6879;DHT22;3478;51.462;7.338;2022-11-06T17:32:43;9.30;99.90
6879;DHT22;3478;51.462;7.338;2022-11-06T17:37:45;9.30;99.90
6879;DHT22;3478;51.462;7.338;2022-11-06T17:42:48;9.30;99.90
6879;DHT22;3478;51.462;7.338;2022-11-06T17:47:50;9.30;99.90
6879;DHT22;3478;51.462;7.338;2022-11-06T17:52:52;9.40;99.90
6879;DHT22;3478;51.462;7.338;2022-11-06T17:57:57;9.40;99.90
6879;DHT22;3478;51.462;7.338;2022-11-06T18:02:59;9.40;99.90
6879;DHT22;3478;51.462;7.338;2022-11-06T18:08:01;9.40;99.90
6879;DHT22;3478;51.462;7.338;2022-11-06T18:13:05;9.30;99.90
6879;DHT22;3478;51.462;7.338;2022-11-06T18:18:06;9.20;99.90
6879;DHT22;3478;51.462;7.338;2022-11-06T18:23:08;9.30;99.90
6879;DHT22;3478;51.462;7.338;2022-11-06T18:28:14;9.30;99.90
6879;DHT22;3478;51.462;7.338;2022-11-06T18:33:17;9.40;99.90
6879;DHT22;3478;51.462;7.338;2022-11-06T18:38:19;9.40;99.90
6879;DHT22;3478;51.462;7.338;2022-11-06T18:43:22;9.30;99.90
6879;DHT22;3478;51.462;7.338;2022-11-06T18:48:24;9.40;99.90
6879;DHT22;3478;51.462;7.338;2022-11-06T18:53:25;9.40;99.90
6879;DHT22;3478;51.462;7.338;2022-11-06T18:58:29;9.50;99.90
6879;DHT22;3478;51.462;7.338;2022-11-06T19:03:30;9.60;99.90
6879;DHT22;3478;51.462;7.338;2022-11-06T19:08:32;9.60;99.90
6879;DHT22;3478;51.462;7.338;2022-11-06T19:13:36;9.60;99.90
6879;DHT22;3478;51.462;7.338;2022-11-06T19:18:39;9.60;99.90
6879;DHT22;3478;51.462;7.338;2022-11-06T19:23:43;9.60;99.90
6879;DHT22;3478;51.462;7.338;2022-11-06T19:28:49;9.60;99.90
6879;DHT22;3478;51.462;7.338;2022-11-06T19:33:51;9.70;99.90
6879;DHT22;3478;51.462;7.338;2022-11-06T19:38:53;9.80;99.90
6879;DHT22;3478;51.462;7.338;2022-11-06T19:43:58;9.80;99.90
6879;DHT22;3478;51.462;7.338;2022-11-06T19:49:00;9.90;99.90
6879;DHT22;3478;51.462;7.338;2022-11-06T19:54:02;9.90;99.90
6879;DHT22;3478;51.462;7.338;2022-11-06T19:59:06;9.90;99.90
6879;DHT22;3478;51.462;7.338;2022-11-06T20:04:08;9.90;99.90
6879;DHT22;3478;51.462;7.338;2022-11-06T20:09:10;10.00;99.90
6879;DHT22;3478;51.462;7.338;2022-11-06T20:14:13;10.00;99.90
6879;DHT22;3478;51.462;7.338;2022-11-06T20:19:18;10.00;99.90
6879;DHT22;3478;51.462;7.338;2022-11-06T20:24:20;10.10;99.90
6879;DHT22;3478;51.462;7.338;2022-11-06T20:29:23;10.00;99.90
6879;DHT22;3478;51.462;7.338;2022-11-06T20:34:25;10.00;99.90
6879;DHT22;3478;51.462;7.338;2022-11-06T20:39:27;10.10;99.90
6879;DHT22;3478;51.462;7.338;2022-11-06T20:44:30;10.10;99.90
6879;DHT22;3478;51.462;7.338;2022-11-06T20:49:32;10.10;99.90
6879;DHT22;3478;51.462;7.338;2022-11-06T20:54:33;10.10;99.90
6879;DHT22;3478;51.462;7.338;2022-11-06T20:59:37;10.10;99.90
6879;DHT22;3478;51.462;7.338;2022-11-06T21:04:39;10.10;99.90
6879;DHT22;3478;51.462;7.338;2022-11-06T21:09:41;10.20;99.90
6879;DHT22;3478;51.462;7.338;2022-11-06T21:14:44;10.20;99.90
6879;DHT22;3478;51.462;7.338;2022-11-06T21:19:46;10.20;99.90
6879;DHT22;3478;51.462;7.338;2022-11-06T21:24:48;10.20;99.90
6879;DHT22;3478;51.462;7.338;2022-11-06T21:29:52;10.20;99.90
6879;DHT22;3478;51.462;7.338;2022-11-06T21:34:55;10.20;99.90
6879;DHT22;3478;51.462;7.338;2022-11-06T21:39:57;10.20;99.90
6879;DHT22;3478;51.462;7.338;2022-11-06T21:45:00;10.30;99.90
6879;DHT22;3478;51.462;7.338;2022-11-06T21:50:02;10.30;99.90
6879;DHT22;3478;51.462;7.338;2022-11-06T21:55:06;10.30;99.90
6879;DHT22;3478;51.462;7.338;2022-11-06T22:00:27;10.30;99.90
6879;DHT22;3478;51.462;7.338;2022-11-06T22:05:29;10.30;99.90
6879;DHT22;3478;51.462;7.338;2022-11-06T22:10:31;10.30;99.90
6879;DHT22;3478;51.462;7.338;2022-11-06T22:15:34;10.30;99.90
6879;DHT22;3478;51.462;7.338;2022-11-06T22:20:36;10.30;99.90
6879;DHT22;3478;51.462;7.338;2022-11-06T22:25:38;10.30;99.90
6879;DHT22;3478;51.462;7.338;2022-11-06T22:30:41;10.30;99.90
6879;DHT22;3478;51.462;7.338;2022-11-06T22:35:43;10.30;99.90
6879;DHT22;3478;51.462;7.338;2022-11-06T22:40:51;10.30;99.90
6879;DHT22;3478;51.462;7.338;2022-11-06T22:45:58;10.30;99.90
6879;DHT22;3478;51.462;7.338;2022-11-06T22:51:01;10.40;99.90
6879;DHT22;3478;51.462;7.338;2022-11-06T22:56:03;10.40;99.90
6879;DHT22;3478;51.462;7.338;2022-11-06T23:01:07;10.40;99.90
6879;DHT22;3478;51.462;7.338;2022-11-06T23:06:09;10.50;99.90
6879;DHT22;3478;51.462;7.338;2022-11-06T23:11:12;10.50;99.90
6879;DHT22;3478;51.462;7.338;2022-11-06T23:16:17;10.50;99.90
6879;DHT22;3478;51.462;7.338;2022-11-06T23:21:40;10.50;99.90
6879;DHT22;3478;51.462;7.338;2022-11-06T23:26:42;10.50;99.90
6879;DHT22;3478;51.462;7.338;2022-11-06T23:31:46;10.60;99.90
6879;DHT22;3478;51.462;7.338;2022-11-06T23:36:48;10.60;99.90
6879;DHT22;3478;51.462;7.338;2022-11-06T23:41:49;10.60;99.90
6879;DHT22;3478;51.462;7.338;2022-11-06T23:46:53;10.70;99.90
6879;DHT22;3478;51.462;7.338;2022-11-06T23:51:55;10.70;99.90
6879;DHT22;3478;51.462;7.338;2022-11-06T23:56:56;10.80;99.90
